Time;durP1;ratioP1;P1;durP2;ratioP2;P2;SDS_P1;SDS_P2;PMS_P1;PMS_P2;Temp;Humidity;BMP_temperature;BMP_pressure;BME280_temperature;BME280_humidity;BME280_pressure;Samples;Min_cycle;Max_cycle;Signal;HPM_P1;HPM_P2
2022/07/27 00:02:05;;;;;;;8.90;3.00;;;;;;;19.25;100.00;101880.88;5078203;28;20115;-51
2022/07/27 00:04:30;;;;;;;5.93;1.92;;;;;;;19.26;100.00;101881.69;5079913;28;20069;-53
2022/07/27 00:06:56;;;;;;;5.75;1.05;;;;;;;18.88;100.00;101878.16;5075473;28;20029;-50
2022/07/27 00:09:22;;;;;;;3.60;1.50;;;;;;;19.02;100.00;101873.44;5077806;28;20075;-53
2022/07/27 00:11:47;;;;;;;4.50;1.40;;;;;;;19.08;100.00;101875.25;5073221;28;20037;-52
2022/07/27 00:14:13;;;;;;;4.72;1.15;;;;;;;18.96;100.00;101869.72;5075189;28;20106;-49
2022/07/27 00:16:39;;;;;;;3.63;1.08;;;;;;;18.81;100.00;101870.13;5078399;28;20029;-51
2022/07/27 00:19:05;;;;;;;5.57;1.45;;;;;;;18.83;100.00;101869.88;5078006;28;20044;-49
2022/07/27 00:21:31;;;;;;;8.73;3.28;;;;;;;18.78;100.00;101876.81;5073930;28;20029;-51
2022/07/27 00:23:56;;;;;;;7.10;1.13;;;;;;;18.78;100.00;101884.09;5081271;28;20036;-48
2022/07/27 00:26:22;;;;;;;8.70;2.17;;;;;;;18.80;100.00;101865.75;5079484;28;20029;-52
2022/07/27 00:28:48;;;;;;;6.20;1.27;;;;;;;18.76;100.00;101869.94;5085050;28;20115;-50
2022/07/27 00:31:14;;;;;;;8.15;1.80;;;;;;;18.65;100.00;101863.38;5075655;28;20061;-51
2022/07/27 00:33:40;;;;;;;4.55;1.35;;;;;;;18.62;100.00;101870.09;5078819;28;20032;-53
2022/07/27 00:36:05;;;;;;;6.90;1.55;;;;;;;18.63;100.00;101857.38;5080152;28;20112;-51
2022/07/27 00:38:32;;;;;;;3.70;1.42;;;;;;;18.53;100.00;101867.91;5076467;28;20038;-49
2022/07/27 00:40:57;;;;;;;6.90;2.23;;;;;;;18.56;100.00;101870.97;5081434;28;20055;-49
2022/07/27 00:43:22;;;;;;;4.53;1.27;;;;;;;18.53;100.00;101867.91;5078010;28;20067;-50
2022/07/27 00:45:48;;;;;;;61.40;38.25;;;;;;;18.51;100.00;101862.69;5081198;28;20059;-51
2022/07/27 00:48:13;;;;;;;67.27;38.20;;;;;;;18.48;100.00;101869.41;5077514;28;20041;-53
2022/07/27 00:50:41;;;;;;;4.33;2.30;;;;;;;18.41;100.00;101865.09;5073618;28;20039;-51
2022/07/27 00:53:09;;;;;;;4.87;1.87;;;;;;;18.45;100.00;101859.03;5078367;28;20032;-54
2022/07/27 00:55:35;;;;;;;6.50;2.10;;;;;;;18.41;100.00;101867.81;5079246;28;20364;-52
2022/07/27 00:58:03;;;;;;;9.50;2.22;;;;;;;18.38;100.00;101869.06;5080797;28;20282;-54
2022/07/27 01:00:29;;;;;;;6.53;2.10;;;;;;;18.36;100.00;101865.78;5080940;28;20049;-48
2022/07/27 01:02:54;;;;;;;6.35;1.42;;;;;;;18.31;100.00;101873.75;5084560;28;20277;-53
2022/07/27 01:05:20;;;;;;;9.25;2.53;;;;;;;18.20;100.00;101870.69;5080760;28;20479;-50
2022/07/27 01:07:47;;;;;;;5.38;1.75;;;;;;;18.14;100.00;101877.00;5075259;28;20047;-49
2022/07/27 01:10:12;;;;;;;5.63;2.17;;;;;;;18.19;100.00;101869.03;5075375;28;20036;-53
2022/07/27 01:12:39;;;;;;;12.30;2.30;;;;;;;18.13;100.00;101878.03;5068600;28;20342;-51
2022/07/27 01:15:05;;;;;;;4.80;1.83;;;;;;;17.73;100.00;101873.72;5072017;28;20040;-47
2022/07/27 01:17:32;;;;;;;4.38;2.00;;;;;;;17.60;100.00;101869.25;5071275;28;20037;-50
2022/07/27 01:19:58;;;;;;;6.15;1.90;;;;;;;17.56;100.00;101869.88;5073220;28;20058;-52
2022/07/27 01:22:24;;;;;;;7.35;1.85;;;;;;;17.95;100.00;101867.13;5073466;28;20047;-53
2022/07/27 01:24:50;;;;;;;8.07;2.42;;;;;;;17.98;100.00;101870.22;5074354;28;20041;-51
2022/07/27 01:27:16;;;;;;;6.00;2.00;;;;;;;18.05;100.00;101870.22;5073643;28;20092;-48
2022/07/27 01:29:41;;;;;;;6.95;2.85;;;;;;;17.71;100.00;101872.28;5081386;28;20048;-50
2022/07/27 01:32:07;;;;;;;4.72;2.20;;;;;;;18.00;100.00;101875.44;5080370;28;20078;-53
2022/07/27 01:34:33;;;;;;;8.48;2.85;;;;;;;18.00;100.00;101868.13;5079936;28;20151;-54
2022/07/27 01:37:03;;;;;;;7.05;2.10;;;;;;;17.91;100.00;101866.75;5079946;28;20119;-50
2022/07/27 01:39:29;;;;;;;11.17;3.50;;;;;;;17.95;100.00;101859.84;5084089;28;20040;-55
2022/07/27 01:41:55;;;;;;;6.63;1.80;;;;;;;17.90;100.00;101868.63;5074033;28;20274;-53
2022/07/27 01:44:20;;;;;;;7.20;2.42;;;;;;;17.94;100.00;101862.75;5078534;28;20075;-51
2022/07/27 01:46:46;;;;;;;19.50;2.90;;;;;;;17.86;100.00;101858.44;5069263;28;20033;-54
2022/07/27 01:49:12;;;;;;;5.35;1.75;;;;;;;17.86;100.00;101864.69;5072793;28;20037;-53
2022/07/27 01:51:37;;;;;;;9.88;2.97;;;;;;;17.85;100.00;101862.19;5073687;28;20048;-51
2022/07/27 01:54:03;;;;;;;6.40;1.83;;;;;;;17.72;100.00;101860.41;5075070;28;20040;-51
2022/07/27 01:56:28;;;;;;;7.55;2.17;;;;;;;17.74;100.00;101861.03;5073799;28;20057;-54
2022/07/27 01:58:54;;;;;;;10.23;2.22;;;;;;;17.72;100.00;101865.81;5076551;28;20037;-53
2022/07/27 02:01:20;;;;;;;5.93;1.97;;;;;;;17.68;100.00;101860.03;5076360;28;20100;-53
2022/07/27 02:03:45;;;;;;;4.07;1.88;;;;;;;17.72;100.00;101857.72;5070146;28;20040;-51
2022/07/27 02:06:11;;;;;;;6.05;1.90;;;;;;;17.70;100.00;101865.22;5074199;28;20041;-52
2022/07/27 02:08:38;;;;;;;7.63;2.30;;;;;;;17.67;100.00;101863.78;5073277;28;20040;-53
2022/07/27 02:13:49;;;;;;;9.00;2.23;;;;;;;17.47;100.00;101862.03;5072325;28;20301;-51
2022/07/27 02:16:16;;;;;;;7.67;2.47;;;;;;;17.58;100.00;101856.97;5076013;28;20301;-53
2022/07/27 02:18:42;;;;;;;11.23;2.50;;;;;;;17.55;100.00;101854.69;5076211;28;20037;-49
2022/07/27 02:21:07;;;;;;;6.22;2.00;;;;;;;17.54;100.00;101862.00;5076078;28;20281;-50
2022/07/27 02:23:34;;;;;;;5.90;1.95;;;;;;;17.47;100.00;101855.78;5075906;28;20060;-50
2022/07/27 02:26:01;;;;;;;7.30;2.23;;;;;;;17.53;100.00;101857.63;5072702;28;20040;-50
2022/07/27 02:28:26;;;;;;;13.35;2.10;;;;;;;17.54;100.00;101853.88;5076096;28;20274;-49
2022/07/27 02:30:51;;;;;;;10.10;2.40;;;;;;;17.56;100.00;101856.34;5071471;28;20037;-51
2022/07/27 02:33:17;;;;;;;7.20;2.30;;;;;;;17.59;100.00;101855.91;5075804;28;20037;-50
2022/07/27 02:35:43;;;;;;;5.10;2.03;;;;;;;17.61;100.00;101860.06;5076460;28;20067;-48
2022/07/27 02:38:08;;;;;;;8.65;2.13;;;;;;;17.59;100.00;101850.50;5075677;28;20033;-56
2022/07/27 02:40:34;;;;;;;3.90;2.07;;;;;;;17.69;100.00;101850.03;5075963;28;20025;-51
2022/07/27 02:42:59;;;;;;;14.50;2.70;;;;;;;17.67;100.00;101852.13;5077984;28;20029;-54
2022/07/27 02:45:24;;;;;;;11.77;3.33;;;;;;;17.69;100.00;101850.88;5073288;28;20048;-54
2022/07/27 02:47:50;;;;;;;8.23;2.20;;;;;;;17.65;100.00;101846.97;5076283;28;20063;-53
2022/07/27 02:50:15;;;;;;;4.67;2.03;;;;;;;17.63;100.00;101844.47;5068377;28;20093;-48
2022/07/27 02:52:41;;;;;;;8.38;2.28;;;;;;;17.59;100.00;101842.41;5075897;28;20029;-52
2022/07/27 02:55:08;;;;;;;7.97;2.43;;;;;;;17.49;100.00;101842.88;5071451;28;20040;-50
2022/07/27 02:57:34;;;;;;;;;;;;;;;17.51;100.00;101846.19;5077280;28;20040;-53
2022/07/27 03:00:00;;;;;;;4.63;2.40;;;;;;;17.46;100.00;101841.44;5079846;28;19923;-50
2022/07/27 03:02:26;;;;;;;5.63;2.70;;;;;;;17.39;100.00;101842.53;5081033;28;20273;-49
2022/07/27 03:04:51;;;;;;;10.00;2.50;;;;;;;17.36;100.00;101845.66;5078757;28;20062;-52
2022/07/27 03:07:17;;;;;;;5.50;2.27;;;;;;;17.33;100.00;101836.09;5076068;28;20084;-53
2022/07/27 03:09:42;;;;;;;12.48;2.78;;;;;;;17.33;100.00;101841.50;5078072;28;20043;-51
2022/07/27 03:12:08;;;;;;;5.50;2.22;;;;;;;17.30;100.00;101848.19;5076783;28;20033;-47
2022/07/27 03:14:33;;;;;;;5.10;2.70;;;;;;;17.22;100.00;101839.50;5081089;28;20048;-52
2022/07/27 03:16:58;;;;;;;9.30;2.37;;;;;;;17.25;100.00;101845.28;5075052;28;20120;-50
2022/07/27 03:19:24;;;;;;;6.65;2.70;;;;;;;17.19;100.00;101844.31;5077794;28;20305;-54
2022/07/27 03:21:50;;;;;;;6.88;2.22;;;;;;;17.20;100.00;101837.00;5079885;28;20033;-49
2022/07/27 03:24:15;;;;;;;7.57;3.27;;;;;;;17.16;100.00;101838.50;5075514;28;20089;-48
2022/07/27 03:26:40;;;;;;;8.43;3.20;;;;;;;17.16;100.00;101841.19;5078029;28;20040;-48
2022/07/27 03:29:06;;;;;;;7.28;2.60;;;;;;;17.18;100.00;101833.69;5076234;28;20108;-53
2022/07/27 03:31:32;;;;;;;10.40;3.42;;;;;;;17.22;100.00;101843.03;5077172;28;20109;-48
2022/07/27 03:33:57;;;;;;;9.35;3.03;;;;;;;17.12;100.00;101846.19;5081996;28;20036;-50
2022/07/27 03:36:22;;;;;;;7.97;2.93;;;;;;;17.15;100.00;101847.63;5078973;28;20047;-49
2022/07/27 03:38:48;;;;;;;6.82;3.15;;;;;;;17.13;100.00;101847.84;5078338;28;20063;-48
2022/07/27 03:41:14;;;;;;;10.70;2.70;;;;;;;17.11;100.00;101852.63;5079229;28;20041;-51
2022/07/27 03:43:39;;;;;;;8.57;3.00;;;;;;;17.14;100.00;101851.38;5074034;28;20043;-49
2022/07/27 03:46:06;;;;;;;10.52;3.45;;;;;;;17.17;100.00;101850.97;5076513;28;20047;-48
2022/07/27 03:48:31;;;;;;;7.53;2.60;;;;;;;17.09;100.00;101852.03;5077480;28;20067;-49
2022/07/27 03:50:56;;;;;;;18.07;3.07;;;;;;;17.12;100.00;101853.47;5082268;28;20028;-53
2022/07/27 03:53:22;;;;;;;13.25;3.05;;;;;;;17.02;100.00;101849.34;5077672;28;20028;-51
2022/07/27 03:55:48;;;;;;;9.97;3.00;;;;;;;17.02;100.00;101854.75;5076643;28;20055;-51
2022/07/27 03:58:14;;;;;;;;;;;;;;;17.01;100.00;101858.50;5078507;28;20056;-52
2022/07/27 04:00:39;;;;;;;5.03;2.73;;;;;;;16.99;100.00;101860.59;5076832;28;19983;-50
2022/07/27 04:03:05;;;;;;;9.97;3.20;;;;;;;17.04;100.00;101863.47;5076674;28;20056;-50
2022/07/27 04:05:30;;;;;;;8.13;3.58;;;;;;;16.96;100.00;101858.28;5078288;28;20092;-52
2022/07/27 04:07:56;;;;;;;11.18;3.03;;;;;;;17.00;100.00;101862.25;5075991;28;20060;-52
2022/07/27 04:10:23;;;;;;;8.68;3.30;;;;;;;16.97;100.00;101854.53;5078166;28;20043;-51
2022/07/27 04:12:49;;;;;;;8.00;2.73;;;;;;;16.96;100.00;101858.28;5076544;28;20041;-51
2022/07/27 04:15:15;;;;;;;5.90;2.80;;;;;;;16.85;100.00;101858.97;5073690;28;20301;-50
2022/07/27 04:17:41;;;;;;;10.25;3.10;;;;;;;17.04;100.00;101860.75;5076653;28;20048;-53
2022/07/27 04:20:07;;;;;;;37.77;15.40;;;;;;;17.30;100.00;101859.00;5080559;28;20052;-51
2022/07/27 04:22:32;;;;;;;44.22;19.55;;;;;;;17.46;100.00;101862.25;5077735;28;20043;-52
2022/07/27 04:24:58;;;;;;;26.75;12.23;;;;;;;17.61;100.00;101873.59;5075310;28;20053;-50
2022/07/27 04:27:23;;;;;;;45.67;19.30;;;;;;;17.67;100.00;101873.78;5074905;28;20037;-53
2022/07/27 04:29:49;;;;;;;16.50;7.13;;;;;;;17.74;100.00;101875.38;5077132;28;20033;-51
2022/07/27 04:32:14;;;;;;;36.87;17.07;;;;;;;17.76;100.00;101867.03;5080676;28;20032;-52
2022/07/27 04:34:40;;;;;;;46.15;22.42;;;;;;;17.84;100.00;101874.91;5074818;28;20072;-53
2022/07/27 04:37:05;;;;;;;64.13;27.50;;;;;;;17.88;100.00;101875.31;5076615;28;20045;-52
2022/07/27 04:39:31;;;;;;;42.78;19.77;;;;;;;17.98;100.00;101875.63;5077042;28;20044;-57
2022/07/27 04:41:56;;;;;;;57.83;26.10;;;;;;;18.09;100.00;101882.25;5076005;28;20052;-54
2022/07/27 04:44:22;;;;;;;53.17;24.40;;;;;;;18.19;100.00;101882.56;5078121;28;20081;-55
2022/07/27 04:46:47;;;;;;;51.77;21.57;;;;;;;18.19;100.00;101877.16;5073897;28;20033;-52
2022/07/27 04:49:13;;;;;;;38.08;16.58;;;;;;;18.13;100.00;101872.63;5077819;28;20037;-54
2022/07/27 04:51:42;;;;;;;40.00;17.27;;;;;;;18.29;100.00;101876.66;5075336;28;20083;-51
2022/07/27 04:54:10;;;;;;;24.00;9.73;;;;;;;18.29;100.00;101870.44;5080967;28;20064;-49
2022/07/27 04:56:35;;;;;;;;;;;;;;;18.23;100.00;101874.03;5074707;28;20340;-51
2022/07/27 04:59:01;;;;;;;34.07;14.23;;;;;;;18.40;100.00;101880.50;5078711;28;19991;-53
2022/07/27 05:01:26;;;;;;;21.02;7.13;;;;;;;18.37;100.00;101882.84;5080361;28;20060;-48
2022/07/27 05:03:52;;;;;;;15.00;4.43;;;;;;;18.34;100.00;101886.81;5073711;28;20029;-49
2022/07/27 05:06:18;;;;;;;21.90;5.63;;;;;;;18.39;100.00;101889.69;5075292;28;20033;-48
2022/07/27 05:08:43;;;;;;;18.55;6.65;;;;;;;18.39;100.00;101886.16;5077454;28;20034;-49
2022/07/27 05:11:09;;;;;;;18.70;6.43;;;;;;;18.48;100.00;101888.38;5072790;28;20033;-50
2022/07/27 05:13:38;;;;;;;10.30;3.30;;;;;;;18.48;100.00;101890.25;5081915;28;20028;-54
2022/07/27 05:16:06;;;;;;;16.30;4.27;;;;;;;18.48;100.00;101893.78;5069930;28;20040;-47
2022/07/27 05:18:31;;;;;;;9.40;3.30;;;;;;;18.56;100.00;101891.84;5072680;28;20289;-52
2022/07/27 05:20:57;;;;;;;22.42;3.53;;;;;;;18.60;100.00;101898.47;5075391;28;20266;-52
2022/07/27 05:23:22;;;;;;;5.07;2.57;;;;;;;18.54;100.00;101899.34;5076962;28;20048;-51
2022/07/27 05:25:48;;;;;;;8.73;3.13;;;;;;;18.49;100.00;101911.69;5075798;28;20036;-52
2022/07/27 05:28:13;;;;;;;8.57;2.78;;;;;;;18.33;100.00;101906.84;5077522;28;20111;-51
2022/07/27 05:30:39;;;;;;;7.10;2.80;;;;;;;18.53;100.00;101911.25;5074960;28;20033;-53
2022/07/27 05:33:05;;;;;;;4.80;2.60;;;;;;;18.49;100.00;101914.41;5077907;28;20024;-50
2022/07/27 05:35:31;;;;;;;15.57;2.67;;;;;;;18.47;100.00;101913.81;5075694;28;20037;-48
2022/07/27 05:37:56;;;;;;;9.93;2.78;;;;;;;18.48;100.00;101923.59;5070314;28;20052;-51
2022/07/27 05:40:22;;;;;;;8.98;2.67;;;;;;;18.27;100.00;101915.84;5073183;28;20032;-49
2022/07/27 05:42:47;;;;;;;4.13;2.05;;;;;;;18.47;100.00;101916.50;5074518;28;20056;-50
2022/07/27 05:45:13;;;;;;;7.68;2.63;;;;;;;18.49;100.00;101918.97;5073863;28;20112;-50
2022/07/27 05:47:39;;;;;;;7.97;2.28;;;;;;;18.57;100.00;101916.00;5075786;28;20056;-53
2022/07/27 05:50:06;;;;;;;11.23;3.28;;;;;;;18.60;100.00;101920.97;5071182;28;20065;-49
2022/07/27 05:52:31;;;;;;;5.35;2.75;;;;;;;18.68;100.00;101927.97;5076378;28;20044;-50
2022/07/27 05:54:57;;;;;;;8.15;2.45;;;;;;;18.75;100.00;101922.47;5076321;28;20100;-53
2022/07/27 05:57:22;;;;;;;7.05;2.55;;;;;;;18.85;100.00;101930.09;5073216;28;20143;-52
2022/07/27 05:59:53;;;;;;;4.97;1.92;;;;;;;18.89;100.00;101926.72;5079088;28;20041;-47
2022/07/27 06:02:18;;;;;;;7.00;2.00;;;;;;;18.93;100.00;101932.53;5072124;28;20037;-51
2022/07/27 06:04:43;;;;;;;10.83;2.50;;;;;;;18.95;100.00;101935.84;5071235;28;20300;-55
2022/07/27 06:09:53;;;;;;;5.03;1.70;;;;;;;19.16;100.00;101942.72;5075436;28;20029;-52
2022/07/27 06:12:19;;;;;;;8.37;2.00;;;;;;;19.29;100.00;101939.00;5074396;28;20272;-50
2022/07/27 06:14:44;;;;;;;;;;;;;;;19.21;100.00;101947.47;5075555;28;20029;-54
2022/07/27 06:17:10;;;;;;;10.10;2.07;;;;;;;19.21;100.00;101942.03;5069366;28;19925;-52
2022/07/27 06:19:38;;;;;;;7.47;2.33;;;;;;;19.22;100.00;101932.84;5074004;28;20051;-51
2022/07/27 06:22:05;;;;;;;3.77;1.73;;;;;;;19.32;100.00;101933.13;5075382;28;20055;-50
2022/07/27 06:24:30;;;;;;;4.17;1.80;;;;;;;19.41;100.00;101940.97;5073573;28;21104;-54
2022/07/27 06:26:56;;;;;;;5.72;1.80;;;;;;;19.62;100.00;101947.78;5071011;28;20284;-50
2022/07/27 06:29:21;;;;;;;7.00;2.10;;;;;;;19.87;100.00;101941.38;5068354;28;20033;-52
2022/07/27 06:31:47;;;;;;;4.28;2.03;;;;;;;20.01;100.00;101937.47;5066958;28;20047;-54
2022/07/27 06:34:12;;;;;;;8.57;2.30;;;;;;;20.32;100.00;101940.13;5072388;28;20072;-52
2022/07/27 06:36:41;;;;;;;14.35;2.15;;;;;;;20.35;100.00;101940.44;5070126;28;20313;-53
2022/07/27 06:39:07;;;;;;;5.10;1.80;;;;;;;20.58;100.00;101943.44;5069589;28;20033;-50
2022/07/27 06:41:33;;;;;;;5.25;1.83;;;;;;;20.56;100.00;101942.84;5071890;28;20056;-50
2022/07/27 06:43:59;;;;;;;3.60;1.20;;;;;;;20.52;100.00;101938.91;5071627;28;20057;-52
2022/07/27 06:46:25;;;;;;;11.25;2.22;;;;;;;20.53;100.00;101943.28;5070506;28;20063;-54
2022/07/27 06:48:51;;;;;;;3.60;1.73;;;;;;;20.46;100.00;101941.53;5080807;28;20030;-51
2022/07/27 06:51:17;;;;;;;4.43;1.43;;;;;;;20.45;100.00;101948.03;5077956;28;20043;-53
2022/07/27 06:53:43;;;;;;;4.40;1.60;;;;;;;20.43;100.00;101946.63;5078475;28;20123;-49
2022/07/27 06:56:09;;;;;;;6.10;1.30;;;;;;;20.40;100.00;101947.06;5076445;28;20029;-51
2022/07/27 06:58:36;;;;;;;5.25;1.52;;;;;;;20.35;100.00;101945.06;5072824;28;20090;-53
2022/07/27 07:01:02;;;;;;;3.80;1.37;;;;;;;20.35;100.00;101945.06;5080025;28;20036;-50
2022/07/27 07:03:28;;;;;;;5.50;1.67;;;;;;;20.43;100.00;101952.88;5071783;28;20059;-52
2022/07/27 07:05:55;;;;;;;5.97;1.63;;;;;;;20.43;100.00;101949.34;5076583;28;20048;-52
2022/07/27 07:08:21;;;;;;;7.93;1.80;;;;;;;20.31;100.00;101946.63;5081414;28;20036;-52
2022/07/27 07:10:48;;;;;;;5.00;1.53;;;;;;;20.46;100.00;101949.69;5080382;28;20063;-53
2022/07/27 07:13:14;;;;;;;6.28;1.60;;;;;;;20.57;100.00;101948.03;5074505;28;20037;-53
2022/07/27 07:15:42;;;;;;;7.25;1.20;;;;;;;20.89;100.00;101950.44;5080740;28;20039;-52
2022/07/27 07:18:08;;;;;;;6.37;1.40;;;;;;;21.01;100.00;101958.56;5077290;28;20037;-52
2022/07/27 07:20:35;;;;;;;4.33;1.30;;;;;;;21.05;100.00;101962.47;5075253;28;20048;-50
2022/07/27 07:23:01;;;;;;;6.87;2.10;;;;;;;21.11;100.00;101957.13;5075850;28;20055;-49
2022/07/27 07:25:27;;;;;;;;;;;;;;;21.10;100.00;101963.63;5073925;28;20036;-50
2022/07/27 07:27:54;;;;;;;6.87;1.33;;;;;;;21.22;100.00;101960.88;5077035;28;19987;-48
2022/07/27 07:30:19;;;;;;;;;;;;;;;21.04;100.00;101965.41;5074370;28;20033;-54
2022/07/27 07:32:46;;;;;;;3.47;1.10;;;;;;;20.95;100.00;101964.13;5077430;28;19939;-49
2022/07/27 07:35:11;;;;;;;;;;;;;;;20.96;100.00;101966.59;5077293;28;20037;-52
2022/07/27 07:37:37;;;;;;;13.73;2.60;;;;;;;21.30;100.00;101965.94;5079102;28;19952;-53
2022/07/27 07:40:04;;;;;;;6.88;1.17;;;;;;;21.30;100.00;101961.34;5070464;28;20029;-55
2022/07/27 07:42:30;;;;;;;10.10;1.23;;;;;;;21.25;100.00;101969.41;5068971;28;20057;-51
2022/07/27 07:44:56;;;;;;;;;;;;;;;21.31;100.00;101962.16;5077360;28;20052;-51
2022/07/27 07:47:22;;;;;;;6.17;1.47;;;;;;;21.30;100.00;101971.38;5067719;28;19985;-51
2022/07/27 07:49:48;;;;;;;5.97;1.03;;;;;;;21.36;100.00;101978.59;5070416;28;20033;-47
2022/07/27 07:52:14;;;;;;;5.80;1.10;;;;;;;21.70;100.00;101972.50;5067614;28;20037;-53
2022/07/27 07:54:39;;;;;;;3.67;1.42;;;;;;;21.92;100.00;101983.50;5072064;28;20120;-52
2022/07/27 07:57:05;;;;;;;3.60;1.38;;;;;;;21.94;100.00;101975.09;5068184;28;20037;-49
2022/07/27 07:59:30;;;;;;;3.05;1.10;;;;;;;22.04;100.00;101983.44;5070899;28;20033;-51
2022/07/27 08:01:56;;;;;;;8.30;1.30;;;;;;;22.09;100.00;101985.44;5072349;28;20033;-50
2022/07/27 08:04:21;;;;;;;5.63;1.70;;;;;;;22.27;100.00;101989.81;5074255;28;20044;-54
2022/07/27 08:06:47;;;;;;;6.13;2.13;;;;;;;22.33;100.00;101991.56;5070167;28;20053;-53
2022/07/27 08:09:13;;;;;;;7.35;2.95;;;;;;;22.39;100.00;101992.47;5067385;28;20033;-51
2022/07/27 08:11:39;;;;;;;5.33;2.20;;;;;;;22.24;100.00;101993.06;5068100;28;20036;-53
2022/07/27 08:14:04;;;;;;;4.03;1.73;;;;;;;22.69;100.00;101997.63;5071984;28;20050;-52
2022/07/27 08:16:29;;;;;;;4.68;1.60;;;;;;;22.72;100.00;101999.84;5065052;28;20041;-48
2022/07/27 08:18:55;;;;;;;6.07;1.08;;;;;;;22.80;100.00;102000.50;5074649;28;20055;-48
2022/07/27 08:21:21;;;;;;;11.45;5.43;;;;;;;22.87;100.00;101999.25;5074409;28;20053;-49
2022/07/27 08:23:46;;;;;;;7.43;1.55;;;;;;;;;;5071184;28;20033;-54
2022/07/27 08:26:12;;;;;;;9.32;2.00;;;;;;;22.95;100.00;102000.72;5071477;28;20047;-50
2022/07/27 08:28:37;;;;;;;3.80;2.20;;;;;;;23.02;100.00;101998.63;5079441;28;20066;-50
2022/07/27 08:31:03;;;;;;;9.50;2.95;;;;;;;23.19;100.00;101995.88;5071022;28;20041;-50
2022/07/27 08:33:28;;;;;;;9.90;1.80;;;;;;;23.38;100.00;102002.94;5077052;28;20053;-54
2022/07/27 08:35:56;;;;;;;5.70;1.10;;;;;;;23.42;100.00;102006.81;5078354;28;20187;-53
2022/07/27 08:38:21;;;;;;;4.87;1.13;;;;;;;23.59;100.00;101999.38;5069110;28;20041;-50
2022/07/27 08:40:48;;;;;;;7.68;1.63;;;;;;;23.54;100.00;101998.50;5076855;28;20516;-56
2022/07/27 08:43:14;;;;;;;5.50;1.33;;;;;;;23.60;100.00;102002.94;5076528;28;20037;-54
2022/07/27 08:45:40;;;;;;;10.93;3.50;;;;;;;23.24;100.00;102003.28;5070636;28;20049;-52
2022/07/27 08:48:05;;;;;;;16.42;7.95;;;;;;;23.61;100.00;102001.84;5069657;28;20030;-52
2022/07/27 08:50:33;;;;;;;3.80;1.73;;;;;;;24.08;100.00;102000.47;5073510;28;20028;-55
2022/07/27 08:53:02;;;;;;;6.97;2.57;;;;;;;24.14;100.00;101993.13;5074113;28;20067;-55
2022/07/27 08:55:33;;;;;;;7.50;1.63;;;;;;;24.09;100.00;101985.72;5077707;28;20045;-53
2022/07/27 08:57:58;;;;;;;4.73;1.60;;;;;;;24.18;100.00;101975.94;5075893;28;20142;-51
2022/07/27 09:00:25;;;;;;;6.07;1.58;;;;;;;24.43;100.00;101982.69;5076165;28;20045;-50
2022/07/27 09:02:51;;;;;;;5.50;1.43;;;;;;;24.57;100.00;101987.72;5076036;28;20044;-50
2022/07/27 09:05:16;;;;;;;6.57;1.10;;;;;;;24.71;100.00;101986.19;5076009;28;20036;-51
2022/07/27 09:07:43;;;;;;;5.82;0.95;;;;;;;24.96;100.00;101992.94;5075810;28;20080;-53
2022/07/27 09:10:10;;;;;;;3.97;1.20;;;;;;;25.25;100.00;101989.78;5068418;28;20041;-51
2022/07/27 09:12:35;;;;;;;7.40;2.83;;;;;;;25.15;96.48;101987.81;5069221;28;20032;-55
2022/07/27 09:15:09;;;;;;;10.18;2.72;;;;;;;25.03;97.79;101992.69;5071888;28;20032;-50
2022/07/27 09:17:36;;;;;;;14.50;4.20;;;;;;;24.85;100.00;101992.06;5073993;28;20057;-51
2022/07/27 09:20:15;;;;;;;8.77;2.63;;;;;;;24.61;100.00;101999.78;5072658;28;20068;-54
2022/07/27 09:22:51;;;;;;;5.43;1.67;;;;;;;24.17;100.00;102001.63;5071772;28;20037;-49
2022/07/27 09:25:22;;;;;;;8.87;3.30;;;;;;;23.69;100.00;101998.69;5072711;28;20029;-50
2022/07/27 09:27:53;;;;;;;7.17;1.83;;;;;;;23.61;100.00;102008.16;5081361;28;20062;-55
2022/07/27 09:30:20;;;;;;;7.10;1.20;;;;;;;23.78;100.00;102007.25;5075222;28;20044;-52
2022/07/27 09:33:05;;;;;;;9.90;3.90;;;;;;;23.83;100.00;102014.66;5072829;28;20471;-50
2022/07/27 09:35:33;;;;;;;6.53;2.07;;;;;;;23.64;100.00;102006.78;5081623;28;20033;-47
2022/07/27 09:38:21;;;;;;;6.13;1.30;;;;;;;23.66;100.00;101998.34;5076928;28;20029;-50
2022/07/27 09:40:49;;;;;;;4.47;2.20;;;;;;;23.99;100.00;101996.50;5073159;28;20158;-53
2022/07/27 09:43:14;;;;;;;5.90;2.10;;;;;;;23.91;100.00;102000.53;5067081;28;20033;-54
2022/07/27 09:45:44;;;;;;;4.55;1.42;;;;;;;23.89;100.00;102000.78;5069927;28;20059;-51
2022/07/27 09:48:15;;;;;;;6.87;2.40;;;;;;;24.09;100.00;101993.06;5070696;28;20025;-54
2022/07/27 09:50:53;;;;;;;9.33;2.17;;;;;;;24.30;100.00;101991.34;5072737;28;20059;-55
2022/07/27 09:53:23;;;;;;;2.87;0.97;;;;;;;24.20;100.00;101992.91;5070124;28;20037;-53
2022/07/27 09:55:56;;;;;;;5.33;1.10;;;;;;;24.96;99.20;101994.84;5073933;28;20063;-52
2022/07/27 09:58:47;;;;;;;6.93;1.93;;;;;;;26.48;88.98;102002.09;5069636;28;20032;-53
2022/07/27 10:01:19;;;;;;;3.87;1.20;;;;;;;27.83;75.43;102015.38;5069034;28;20055;-53
2022/07/27 10:03:47;;;;;;;2.60;1.10;;;;;;;28.76;66.47;102009.13;5072128;28;20067;-51
2022/07/27 10:06:12;;;;;;;9.32;1.33;;;;;;;29.43;60.92;102015.84;5072055;28;20047;-53
2022/07/27 10:08:42;;;;;;;3.28;1.00;;;;;;;29.78;54.04;102015.66;5072507;28;20049;-51
2022/07/27 10:11:08;;;;;;;6.90;1.25;;;;;;;29.93;57.27;102016.50;5071508;28;20033;-55
2022/07/27 10:13:34;;;;;;;3.92;1.23;;;;;;;30.16;51.81;102010.09;5069463;28;20044;-54
2022/07/27 10:16:03;;;;;;;8.10;1.23;;;;;;;30.43;47.08;102013.25;5068763;28;20040;-52
2022/07/27 10:18:44;;;;;;;2.97;1.00;;;;;;;31.07;48.21;102020.91;5070065;28;20041;-54
2022/07/27 10:21:10;;;;;;;1.40;0.55;;;;;;;31.37;42.46;102017.81;5069606;28;20089;-53
2022/07/27 10:23:39;;;;;;;3.60;1.08;;;;;;;32.15;39.80;102017.69;5068869;28;20094;-54
2022/07/27 10:26:15;;;;;;;6.55;0.82;;;;;;;32.77;38.22;102028.31;5069416;28;20036;-52
2022/07/27 10:28:48;;;;;;;4.63;1.83;;;;;;;32.56;37.41;102023.34;5078070;28;20031;-51
2022/07/27 10:31:17;;;;;;;3.88;1.30;;;;;;;33.38;36.27;102019.34;5068889;28;20025;-55
2022/07/27 10:33:49;;;;;;;5.95;0.82;;;;;;;33.80;38.99;102013.41;5074423;28;20056;-53
2022/07/27 10:36:18;;;;;;;3.45;0.95;;;;;;;33.87;36.50;102013.72;5072712;28;20040;-55
2022/07/27 10:38:50;;;;;;;3.90;2.55;;;;;;;34.13;36.29;102015.66;5071432;28;20060;-53
2022/07/27 10:41:35;;;;;;;11.18;6.55;;;;;;;34.60;35.69;102006.53;5071680;28;20092;-49
2022/07/27 10:44:21;;;;;;;7.68;2.47;;;;;;;34.55;35.31;102009.50;5069730;28;20065;-55
2022/07/27 10:46:53;;;;;;;16.38;6.30;;;;;;;34.70;34.84;102013.69;5075937;28;20084;-54
2022/07/27 10:49:21;;;;;;;4.85;2.38;;;;;;;35.13;33.05;102009.09;5067740;28;20087;-59
2022/07/27 10:51:48;;;;;;;4.13;1.55;;;;;;;35.04;32.33;102009.16;5067720;28;20029;-54
2022/07/27 10:54:26;;;;;;;4.13;0.85;;;;;;;35.27;32.55;101990.19;5073558;28;20036;-56
2022/07/27 10:56:55;;;;;;;10.02;5.43;;;;;;;35.83;32.36;101989.09;5070227;28;20024;-53
2022/07/27 10:59:50;;;;;;;17.55;9.70;;;;;;;35.74;35.28;101999.47;5074431;28;20039;-50
2022/07/27 11:02:19;;;;;;;10.05;5.68;;;;;;;36.19;33.02;101994.31;5060115;28;21396;-53
2022/07/27 11:04:51;;;;;;;15.90;9.70;;;;;;;36.58;33.04;101997.66;5080398;28;20150;-56
2022/07/27 11:07:20;;;;;;;11.68;6.75;;;;;;;36.94;32.19;101998.81;5071302;28;20035;-51
2022/07/27 11:09:48;;;;;;;10.57;6.38;;;;;;;36.48;34.69;101996.09;5071005;28;20029;-54
2022/07/27 11:12:14;;;;;;;5.93;2.70;;;;;;;37.25;31.28;102000.16;5070377;28;20033;-58
2022/07/27 11:14:48;;;;;;;3.50;1.10;;;;;;;37.42;28.33;101987.91;5068306;28;20040;-53
2022/07/27 11:17:20;;;;;;;6.07;1.63;;;;;;;36.44;27.06;101995.97;5075140;28;20033;-54
2022/07/27 11:19:57;;;;;;;6.00;1.65;;;;;;;37.39;29.34;101988.63;5072268;28;20029;-55
2022/07/27 11:22:37;;;;;;;11.05;4.82;;;;;;;37.65;31.95;101989.38;5065960;28;20671;-53
2022/07/27 11:25:03;;;;;;;4.75;2.38;;;;;;;38.10;27.66;101988.25;5072606;28;20033;-56